sensor_id;sensor_type;location;lat;lon;timestamp;P1;durP1;ratioP1;P2;durP2;ratioP2
61373;SDS011;47242;48.158;-1.586;2023-07-08T04:30:22;7.45;;;3.38;;
61373;SDS011;47242;48.158;-1.586;2023-07-08T04:32:50;5.35;;;2.85;;
61373;SDS011;47242;48.158;-1.586;2023-07-08T04:35:16;8.77;;;3.15;;
61373;SDS011;47242;48.158;-1.586;2023-07-08T04:37:42;6.50;;;3.25;;
61373;SDS011;47242;48.158;-1.586;2023-07-08T04:40:16;6.78;;;3.33;;
61373;SDS011;47242;48.158;-1.586;2023-07-08T04:42:43;10.23;;;3.30;;
61373;SDS011;47242;48.158;-1.586;2023-07-08T04:45:12;6.95;;;3.10;;
61373;SDS011;47242;48.158;-1.586;2023-07-08T04:47:39;7.25;;;3.33;;
61373;SDS011;47242;48.158;-1.586;2023-07-08T04:50:04;8.55;;;3.60;;
61373;SDS011;47242;48.158;-1.586;2023-07-08T04:52:30;6.75;;;3.50;;
61373;SDS011;47242;48.158;-1.586;2023-07-08T04:54:56;6.95;;;3.97;;
61373;SDS011;47242;48.158;-1.586;2023-07-08T04:57:22;8.30;;;3.42;;
61373;SDS011;47242;48.158;-1.586;2023-07-08T04:59:47;8.65;;;3.45;;
61373;SDS011;47242;48.158;-1.586;2023-07-08T05:02:13;5.50;;;3.03;;
61373;SDS011;47242;48.158;-1.586;2023-07-08T05:04:39;6.35;;;3.42;;
61373;SDS011;47242;48.158;-1.586;2023-07-08T05:07:04;6.90;;;3.45;;
61373;SDS011;47242;48.158;-1.586;2023-07-08T05:09:30;5.55;;;3.03;;
61373;SDS011;47242;48.158;-1.586;2023-07-08T05:11:56;6.47;;;3.17;;
61373;SDS011;47242;48.158;-1.586;2023-07-08T05:14:22;8.52;;;3.85;;
61373;SDS011;47242;48.158;-1.586;2023-07-08T05:16:48;5.85;;;3.47;;
61373;SDS011;47242;48.158;-1.586;2023-07-08T05:19:13;6.05;;;3.83;;
61373;SDS011;47242;48.158;-1.586;2023-07-08T05:21:39;7.00;;;3.75;;
61373;SDS011;47242;48.158;-1.586;2023-07-08T05:24:05;8.45;;;4.28;;
61373;SDS011;47242;48.158;-1.586;2023-07-08T05:26:32;8.57;;;4.03;;
61373;SDS011;47242;48.158;-1.586;2023-07-08T05:28:58;8.40;;;3.72;;
61373;SDS011;47242;48.158;-1.586;2023-07-08T05:31:24;7.65;;;3.40;;
61373;SDS011;47242;48.158;-1.586;2023-07-08T05:33:50;8.60;;;4.32;;
61373;SDS011;47242;48.158;-1.586;2023-07-08T05:36:16;7.50;;;3.92;;
61373;SDS011;47242;48.158;-1.586;2023-07-08T05:38:41;6.68;;;3.85;;
61373;SDS011;47242;48.158;-1.586;2023-07-08T05:41:07;7.43;;;3.47;;
61373;SDS011;47242;48.158;-1.586;2023-07-08T05:43:33;6.95;;;3.95;;
61373;SDS011;47242;48.158;-1.586;2023-07-08T05:45:59;7.45;;;3.70;;
61373;SDS011;47242;48.158;-1.586;2023-07-08T05:48:25;6.68;;;3.35;;
61373;SDS011;47242;48.158;-1.586;2023-07-08T05:50:51;9.15;;;3.92;;
61373;SDS011;47242;48.158;-1.586;2023-07-08T05:53:18;8.85;;;3.80;;
61373;SDS011;47242;48.158;-1.586;2023-07-08T05:55:45;9.63;;;3.95;;
61373;SDS011;47242;48.158;-1.586;2023-07-08T05:58:12;6.38;;;3.90;;
61373;SDS011;47242;48.158;-1.586;2023-07-08T06:00:40;6.93;;;3.65;;
61373;SDS011;47242;48.158;-1.586;2023-07-08T06:03:07;7.95;;;3.60;;
61373;SDS011;47242;48.158;-1.586;2023-07-08T06:05:33;7.03;;;3.55;;
61373;SDS011;47242;48.158;-1.586;2023-07-08T06:07:59;8.23;;;4.03;;
61373;SDS011;47242;48.158;-1.586;2023-07-08T06:10:25;7.93;;;3.65;;
61373;SDS011;47242;48.158;-1.586;2023-07-08T06:12:50;8.65;;;4.20;;
61373;SDS011;47242;48.158;-1.586;2023-07-08T06:15:17;7.00;;;4.20;;
61373;SDS011;47242;48.158;-1.586;2023-07-08T06:17:42;7.95;;;4.10;;
61373;SDS011;47242;48.158;-1.586;2023-07-08T06:20:08;6.70;;;3.97;;
61373;SDS011;47242;48.158;-1.586;2023-07-08T06:22:34;6.35;;;3.80;;
61373;SDS011;47242;48.158;-1.586;2023-07-08T06:24:59;8.02;;;3.92;;
61373;SDS011;47242;48.158;-1.586;2023-07-08T06:27:25;9.57;;;4.30;;
61373;SDS011;47242;48.158;-1.586;2023-07-08T06:29:51;7.50;;;4.20;;
61373;SDS011;47242;48.158;-1.586;2023-07-08T06:32:18;6.30;;;4.00;;
61373;SDS011;47242;48.158;-1.586;2023-07-08T06:34:43;7.18;;;4.05;;
61373;SDS011;47242;48.158;-1.586;2023-07-08T06:37:09;10.10;;;4.43;;
61373;SDS011;47242;48.158;-1.586;2023-07-08T06:39:35;7.57;;;4.32;;
61373;SDS011;47242;48.158;-1.586;2023-07-08T06:42:00;8.23;;;4.85;;
61373;SDS011;47242;48.158;-1.586;2023-07-08T06:44:26;9.20;;;4.53;;
61373;SDS011;47242;48.158;-1.586;2023-07-08T06:46:52;8.25;;;4.50;;
61373;SDS011;47242;48.158;-1.586;2023-07-08T06:49:17;8.00;;;4.40;;
61373;SDS011;47242;48.158;-1.586;2023-07-08T06:51:43;6.50;;;4.10;;
61373;SDS011;47242;48.158;-1.586;2023-07-08T06:54:10;5.85;;;3.88;;
61373;SDS011;47242;48.158;-1.586;2023-07-08T06:56:40;9.95;;;4.68;;
61373;SDS011;47242;48.158;-1.586;2023-07-08T06:59:09;9.60;;;4.57;;
61373;SDS011;47242;48.158;-1.586;2023-07-08T07:01:35;8.55;;;4.85;;
61373;SDS011;47242;48.158;-1.586;2023-07-08T07:04:02;8.65;;;4.78;;
61373;SDS011;47242;48.158;-1.586;2023-07-08T07:06:28;8.85;;;4.40;;
61373;SDS011;47242;48.158;-1.586;2023-07-08T07:08:54;8.40;;;4.35;;
61373;SDS011;47242;48.158;-1.586;2023-07-08T07:11:20;7.75;;;4.10;;
61373;SDS011;47242;48.158;-1.586;2023-07-08T07:13:46;11.35;;;4.43;;
61373;SDS011;47242;48.158;-1.586;2023-07-08T07:16:12;9.27;;;3.67;;
61373;SDS011;47242;48.158;-1.586;2023-07-08T07:18:37;8.50;;;4.15;;
61373;SDS011;47242;48.158;-1.586;2023-07-08T07:21:03;7.93;;;4.28;;
61373;SDS011;47242;48.158;-1.586;2023-07-08T07:23:29;8.95;;;4.03;;
61373;SDS011;47242;48.158;-1.586;2023-07-08T07:25:54;9.65;;;4.20;;
61373;SDS011;47242;48.158;-1.586;2023-07-08T07:28:20;8.13;;;5.00;;
61373;SDS011;47242;48.158;-1.586;2023-07-08T07:30:46;9.30;;;4.72;;
61373;SDS011;47242;48.158;-1.586;2023-07-08T07:33:12;8.80;;;4.65;;
61373;SDS011;47242;48.158;-1.586;2023-07-08T07:35:42;9.20;;;4.70;;
61373;SDS011;47242;48.158;-1.586;2023-07-08T07:38:08;9.30;;;4.63;;
61373;SDS011;47242;48.158;-1.586;2023-07-08T07:40:34;8.93;;;4.85;;
61373;SDS011;47242;48.158;-1.586;2023-07-08T07:43:00;8.30;;;4.80;;
61373;SDS011;47242;48.158;-1.586;2023-07-08T07:45:26;8.10;;;4.88;;
61373;SDS011;47242;48.158;-1.586;2023-07-08T07:47:52;9.23;;;4.60;;
61373;SDS011;47242;48.158;-1.586;2023-07-08T07:50:17;9.05;;;4.55;;
61373;SDS011;47242;48.158;-1.586;2023-07-08T07:52:43;10.48;;;5.13;;
61373;SDS011;47242;48.158;-1.586;2023-07-08T07:55:09;9.18;;;4.97;;
61373;SDS011;47242;48.158;-1.586;2023-07-08T07:57:34;10.30;;;4.88;;
61373;SDS011;47242;48.158;-1.586;2023-07-08T08:00:00;9.18;;;4.82;;
61373;SDS011;47242;48.158;-1.586;2023-07-08T08:02:25;9.00;;;5.10;;
61373;SDS011;47242;48.158;-1.586;2023-07-08T08:04:51;7.95;;;4.72;;
61373;SDS011;47242;48.158;-1.586;2023-07-08T08:07:17;7.95;;;5.07;;
61373;SDS011;47242;48.158;-1.586;2023-07-08T08:09:43;6.55;;;4.38;;
61373;SDS011;47242;48.158;-1.586;2023-07-08T08:12:10;8.88;;;5.43;;
61373;SDS011;47242;48.158;-1.586;2023-07-08T08:14:36;8.20;;;5.03;;
61373;SDS011;47242;48.158;-1.586;2023-07-08T08:17:02;9.75;;;4.35;;
61373;SDS011;47242;48.158;-1.586;2023-07-08T08:19:28;10.98;;;4.90;;
61373;SDS011;47242;48.158;-1.586;2023-07-08T08:21:54;8.70;;;5.57;;
61373;SDS011;47242;48.158;-1.586;2023-07-08T08:24:19;6.85;;;4.57;;
61373;SDS011;47242;48.158;-1.586;2023-07-08T08:26:45;6.57;;;4.07;;
61373;SDS011;47242;48.158;-1.586;2023-07-08T08:29:11;5.90;;;3.88;;
61373;SDS011;47242;48.158;-1.586;2023-07-08T08:31:36;6.88;;;3.72;;
61373;SDS011;47242;48.158;-1.586;2023-07-08T08:34:02;5.63;;;3.40;;
61373;SDS011;47242;48.158;-1.586;2023-07-08T08:36:27;5.05;;;2.90;;
61373;SDS011;47242;48.158;-1.586;2023-07-08T08:38:53;7.32;;;3.55;;
61373;SDS011;47242;48.158;-1.586;2023-07-08T08:41:30;8.93;;;3.22;;
61373;SDS011;47242;48.158;-1.586;2023-07-08T08:43:57;5.88;;;3.17;;
61373;SDS011;47242;48.158;-1.586;2023-07-08T08:51:50;6.25;;;3.00;;
61373;SDS011;47242;48.158;-1.586;2023-07-08T08:54:16;5.88;;;2.90;;
61373;SDS011;47242;48.158;-1.586;2023-07-08T08:59:27;7.80;;;2.55;;
61373;SDS011;47242;48.158;-1.586;2023-07-08T09:05:11;6.80;;;3.00;;
61373;SDS011;47242;48.158;-1.586;2023-07-08T09:07:58;5.07;;;2.80;;
61373;SDS011;47242;48.158;-1.586;2023-07-08T09:13:05;7.68;;;3.13;;
61373;SDS011;47242;48.158;-1.586;2023-07-08T09:15:32;5.78;;;3.25;;
61373;SDS011;47242;48.158;-1.586;2023-07-08T09:18:00;5.40;;;2.60;;
61373;SDS011;47242;48.158;-1.586;2023-07-08T09:20:39;6.60;;;2.60;;
61373;SDS011;47242;48.158;-1.586;2023-07-08T09:23:11;5.43;;;2.58;;
61373;SDS011;47242;48.158;-1.586;2023-07-08T09:26:09;4.88;;;2.40;;
61373;SDS011;47242;48.158;-1.586;2023-07-08T09:28:58;6.35;;;2.53;;
61373;SDS011;47242;48.158;-1.586;2023-07-08T09:31:28;4.95;;;2.60;;
61373;SDS011;47242;48.158;-1.586;2023-07-08T09:34:09;4.68;;;2.30;;
61373;SDS011;47242;48.158;-1.586;2023-07-08T09:36:43;4.80;;;2.40;;
61373;SDS011;47242;48.158;-1.586;2023-07-08T09:39:18;5.10;;;2.00;;
61373;SDS011;47242;48.158;-1.586;2023-07-08T09:41:46;4.47;;;1.73;;
61373;SDS011;47242;48.158;-1.586;2023-07-08T09:44:15;6.20;;;1.90;;
61373;SDS011;47242;48.158;-1.586;2023-07-08T09:46:52;3.55;;;1.95;;
61373;SDS011;47242;48.158;-1.586;2023-07-08T09:49:23;4.03;;;1.63;;
61373;SDS011;47242;48.158;-1.586;2023-07-08T09:52:02;4.65;;;1.90;;
61373;SDS011;47242;48.158;-1.586;2023-07-08T09:54:29;4.97;;;2.33;;
61373;SDS011;47242;48.158;-1.586;2023-07-08T09:56:58;4.32;;;2.10;;
61373;SDS011;47242;48.158;-1.586;2023-07-08T09:59:46;4.20;;;2.40;;
61373;SDS011;47242;48.158;-1.586;2023-07-08T10:02:24;4.95;;;2.10;;
61373;SDS011;47242;48.158;-1.586;2023-07-08T10:04:53;5.68;;;2.45;;
61373;SDS011;47242;48.158;-1.586;2023-07-08T10:07:22;4.35;;;2.13;;
61373;SDS011;47242;48.158;-1.586;2023-07-08T10:09:48;4.50;;;2.00;;
61373;SDS011;47242;48.158;-1.586;2023-07-08T10:12:21;3.83;;;2.22;;
61373;SDS011;47242;48.158;-1.586;2023-07-08T10:14:49;3.42;;;1.98;;
61373;SDS011;47242;48.158;-1.586;2023-07-08T10:17:25;4.07;;;1.90;;
61373;SDS011;47242;48.158;-1.586;2023-07-08T10:19:51;4.28;;;2.20;;
61373;SDS011;47242;48.158;-1.586;2023-07-08T10:28:02;4.45;;;1.90;;
61373;SDS011;47242;48.158;-1.586;2023-07-08T11:03:58;5.28;;;1.50;;
61373;SDS011;47242;48.158;-1.586;2023-07-08T11:06:29;5.00;;;1.65;;
61373;SDS011;47242;48.158;-1.586;2023-07-08T11:09:09;4.43;;;1.73;;
61373;SDS011;47242;48.158;-1.586;2023-07-08T11:11:43;3.88;;;1.58;;
61373;SDS011;47242;48.158;-1.586;2023-07-08T11:14:18;4.13;;;1.80;;
61373;SDS011;47242;48.158;-1.586;2023-07-08T11:16:55;4.75;;;2.00;;
61373;SDS011;47242;48.158;-1.586;2023-07-08T11:19:48;7.55;;;2.35;;
61373;SDS011;47242;48.158;-1.586;2023-07-08T11:22:20;3.65;;;1.75;;
61373;SDS011;47242;48.158;-1.586;2023-07-08T11:24:48;3.50;;;1.67;;
61373;SDS011;47242;48.158;-1.586;2023-07-08T11:27:22;3.30;;;1.58;;
61373;SDS011;47242;48.158;-1.586;2023-07-08T11:32:30;4.65;;;2.00;;
61373;SDS011;47242;48.158;-1.586;2023-07-08T11:34:59;5.68;;;2.20;;
61373;SDS011;47242;48.158;-1.586;2023-07-08T11:37:27;5.07;;;2.05;;
61373;SDS011;47242;48.158;-1.586;2023-07-08T11:39:59;5.13;;;2.05;;
61373;SDS011;47242;48.158;-1.586;2023-07-08T11:43:04;4.30;;;2.15;;
61373;SDS011;47242;48.158;-1.586;2023-07-08T11:45:35;4.75;;;2.13;;
61373;SDS011;47242;48.158;-1.586;2023-07-08T11:48:09;4.65;;;1.90;;
61373;SDS011;47242;48.158;-1.586;2023-07-08T11:50:40;4.07;;;2.08;;
61373;SDS011;47242;48.158;-1.586;2023-07-08T11:53:12;4.57;;;2.00;;
61373;SDS011;47242;48.158;-1.586;2023-07-08T11:56:00;3.78;;;1.88;;
61373;SDS011;47242;48.158;-1.586;2023-07-08T12:03:55;6.78;;;1.88;;
61373;SDS011;47242;48.158;-1.586;2023-07-08T12:08:52;5.20;;;2.10;;
61373;SDS011;47242;48.158;-1.586;2023-07-08T12:11:23;4.40;;;1.90;;
61373;SDS011;47242;48.158;-1.586;2023-07-08T12:13:55;4.22;;;1.92;;
61373;SDS011;47242;48.158;-1.586;2023-07-08T12:16:29;4.85;;;2.30;;
61373;SDS011;47242;48.158;-1.586;2023-07-08T12:18:56;4.22;;;2.35;;
61373;SDS011;47242;48.158;-1.586;2023-07-08T12:21:24;5.32;;;1.83;;
61373;SDS011;47242;48.158;-1.586;2023-07-08T12:24:11;5.28;;;2.38;;
61373;SDS011;47242;48.158;-1.586;2023-07-08T12:26:39;6.32;;;2.17;;
61373;SDS011;47242;48.158;-1.586;2023-07-08T12:29:11;5.25;;;2.35;;
61373;SDS011;47242;48.158;-1.586;2023-07-08T12:31:38;5.97;;;1.95;;
61373;SDS011;47242;48.158;-1.586;2023-07-08T12:34:07;5.20;;;2.30;;
61373;SDS011;47242;48.158;-1.586;2023-07-08T12:36:37;3.55;;;1.65;;
61373;SDS011;47242;48.158;-1.586;2023-07-08T12:39:03;4.40;;;2.20;;
61373;SDS011;47242;48.158;-1.586;2023-07-08T12:41:31;4.13;;;2.03;;
61373;SDS011;47242;48.158;-1.586;2023-07-08T12:44:00;3.90;;;1.83;;
61373;SDS011;47242;48.158;-1.586;2023-07-08T12:46:27;6.30;;;2.08;;
61373;SDS011;47242;48.158;-1.586;2023-07-08T12:48:54;3.88;;;2.08;;
61373;SDS011;47242;48.158;-1.586;2023-07-08T12:51:22;4.78;;;2.35;;
61373;SDS011;47242;48.158;-1.586;2023-07-08T12:53:53;3.63;;;1.70;;
61373;SDS011;47242;48.158;-1.586;2023-07-08T12:56:20;6.63;;;2.20;;
61373;SDS011;47242;48.158;-1.586;2023-07-08T12:58:51;4.88;;;2.05;;
61373;SDS011;47242;48.158;-1.586;2023-07-08T13:01:21;5.57;;;2.00;;
61373;SDS011;47242;48.158;-1.586;2023-07-08T13:03:51;5.70;;;2.85;;
61373;SDS011;47242;48.158;-1.586;2023-07-08T13:06:21;5.00;;;2.22;;
61373;SDS011;47242;48.158;-1.586;2023-07-08T13:08:50;6.40;;;2.25;;
61373;SDS011;47242;48.158;-1.586;2023-07-08T13:11:17;3.63;;;1.60;;
61373;SDS011;47242;48.158;-1.586;2023-07-08T13:13:56;4.38;;;1.48;;
61373;SDS011;47242;48.158;-1.586;2023-07-08T13:16:28;4.35;;;1.60;;
61373;SDS011;47242;48.158;-1.586;2023-07-08T13:18:56;3.35;;;1.52;;
61373;SDS011;47242;48.158;-1.586;2023-07-08T13:21:22;4.35;;;1.45;;
61373;SDS011;47242;48.158;-1.586;2023-07-08T13:23:49;3.50;;;1.50;;
61373;SDS011;47242;48.158;-1.586;2023-07-08T13:26:16;3.70;;;1.50;;
61373;SDS011;47242;48.158;-1.586;2023-07-08T13:28:44;2.97;;;1.30;;
61373;SDS011;47242;48.158;-1.586;2023-07-08T13:31:18;2.95;;;1.48;;
61373;SDS011;47242;48.158;-1.586;2023-07-08T13:33:46;2.92;;;1.40;;
61373;SDS011;47242;48.158;-1.586;2023-07-08T13:36:17;3.55;;;1.58;;
61373;SDS011;47242;48.158;-1.586;2023-07-08T13:38:48;3.63;;;1.40;;
61373;SDS011;47242;48.158;-1.586;2023-07-08T13:41:19;3.42;;;1.70;;
61373;SDS011;47242;48.158;-1.586;2023-07-08T13:43:47;4.32;;;1.63;;
61373;SDS011;47242;48.158;-1.586;2023-07-08T13:49:16;3.65;;;1.60;;
61373;SDS011;47242;48.158;-1.586;2023-07-08T13:52:05;4.07;;;1.60;;
61373;SDS011;47242;48.158;-1.586;2023-07-08T13:54:37;2.88;;;1.40;;
61373;SDS011;47242;48.158;-1.586;2023-07-08T13:57:19;4.45;;;1.67;;
61373;SDS011;47242;48.158;-1.586;2023-07-08T13:59:47;3.33;;;1.58;;
61373;SDS011;47242;48.158;-1.586;2023-07-08T14:02:18;3.45;;;1.80;;
61373;SDS011;47242;48.158;-1.586;2023-07-08T14:04:47;4.93;;;2.38;;
61373;SDS011;47242;48.158;-1.586;2023-07-08T14:07:17;4.18;;;1.95;;
61373;SDS011;47242;48.158;-1.586;2023-07-08T14:09:45;4.00;;;1.70;;
61373;SDS011;47242;48.158;-1.586;2023-07-08T14:12:11;4.13;;;1.65;;
61373;SDS011;47242;48.158;-1.586;2023-07-08T14:14:36;4.30;;;1.77;;
61373;SDS011;47242;48.158;-1.586;2023-07-08T14:17:02;3.90;;;1.90;;
61373;SDS011;47242;48.158;-1.586;2023-07-08T14:19:31;4.70;;;1.90;;
61373;SDS011;47242;48.158;-1.586;2023-07-08T14:24:36;4.18;;;1.85;;
61373;SDS011;47242;48.158;-1.586;2023-07-08T14:27:02;3.88;;;1.75;;
61373;SDS011;47242;48.158;-1.586;2023-07-08T14:29:28;4.80;;;1.70;;
61373;SDS011;47242;48.158;-1.586;2023-07-08T14:31:54;4.95;;;2.03;;
61373;SDS011;47242;48.158;-1.586;2023-07-08T14:34:23;5.05;;;2.20;;
61373;SDS011;47242;48.158;-1.586;2023-07-08T14:36:51;4.10;;;1.85;;
61373;SDS011;47242;48.158;-1.586;2023-07-08T14:39:17;3.47;;;1.60;;
61373;SDS011;47242;48.158;-1.586;2023-07-08T14:41:43;6.00;;;1.80;;
61373;SDS011;47242;48.158;-1.586;2023-07-08T14:44:22;4.75;;;1.75;;
61373;SDS011;47242;48.158;-1.586;2023-07-08T14:46:50;4.82;;;1.90;;
61373;SDS011;47242;48.158;-1.586;2023-07-08T14:49:18;3.72;;;1.70;;
61373;SDS011;47242;48.158;-1.586;2023-07-08T14:51:45;3.80;;;1.55;;
61373;SDS011;47242;48.158;-1.586;2023-07-08T14:54:11;4.30;;;1.50;;
61373;SDS011;47242;48.158;-1.586;2023-07-08T14:56:37;3.20;;;1.60;;
61373;SDS011;47242;48.158;-1.586;2023-07-08T14:59:03;4.35;;;2.17;;
61373;SDS011;47242;48.158;-1.586;2023-07-08T15:01:29;3.95;;;1.80;;
61373;SDS011;47242;48.158;-1.586;2023-07-08T15:03:56;3.83;;;2.00;;
61373;SDS011;47242;48.158;-1.586;2023-07-08T15:06:22;2.80;;;1.33;;
61373;SDS011;47242;48.158;-1.586;2023-07-08T15:08:48;4.70;;;1.90;;
61373;SDS011;47242;48.158;-1.586;2023-07-08T15:11:14;4.95;;;2.00;;
61373;SDS011;47242;48.158;-1.586;2023-07-08T15:13:41;4.05;;;1.90;;
61373;SDS011;47242;48.158;-1.586;2023-07-08T15:16:13;4.80;;;1.95;;
61373;SDS011;47242;48.158;-1.586;2023-07-08T15:18:41;5.40;;;2.00;;
61373;SDS011;47242;48.158;-1.586;2023-07-08T15:21:14;6.07;;;1.92;;
61373;SDS011;47242;48.158;-1.586;2023-07-08T15:23:40;4.28;;;1.85;;
61373;SDS011;47242;48.158;-1.586;2023-07-08T15:26:09;3.78;;;1.80;;
61373;SDS011;47242;48.158;-1.586;2023-07-08T15:28:40;4.25;;;1.90;;
61373;SDS011;47242;48.158;-1.586;2023-07-08T15:31:23;6.20;;;1.90;;
61373;SDS011;47242;48.158;-1.586;2023-07-08T15:33:54;5.13;;;1.98;;
61373;SDS011;47242;48.158;-1.586;2023-07-08T15:36:19;4.03;;;1.75;;
61373;SDS011;47242;48.158;-1.586;2023-07-08T15:38:45;4.32;;;1.98;;
61373;SDS011;47242;48.158;-1.586;2023-07-08T15:41:24;5.55;;;2.45;;
61373;SDS011;47242;48.158;-1.586;2023-07-08T15:43:54;4.20;;;1.67;;
61373;SDS011;47242;48.158;-1.586;2023-07-08T15:46:21;3.90;;;1.92;;
61373;SDS011;47242;48.158;-1.586;2023-07-08T15:48:47;3.85;;;2.05;;
61373;SDS011;47242;48.158;-1.586;2023-07-08T15:51:13;5.80;;;1.98;;
61373;SDS011;47242;48.158;-1.586;2023-07-08T15:53:40;4.43;;;1.75;;
61373;SDS011;47242;48.158;-1.586;2023-07-08T15:56:08;4.13;;;1.95;;
61373;SDS011;47242;48.158;-1.586;2023-07-08T15:58:40;3.47;;;1.60;;
61373;SDS011;47242;48.158;-1.586;2023-07-08T16:01:07;3.92;;;1.95;;
61373;SDS011;47242;48.158;-1.586;2023-07-08T16:03:42;3.42;;;1.70;;
61373;SDS011;47242;48.158;-1.586;2023-07-08T16:06:08;3.53;;;1.70;;
61373;SDS011;47242;48.158;-1.586;2023-07-08T16:08:34;4.30;;;1.67;;
61373;SDS011;47242;48.158;-1.586;2023-07-08T16:11:02;4.13;;;1.50;;
61373;SDS011;47242;48.158;-1.586;2023-07-08T16:13:30;4.60;;;1.85;;
61373;SDS011;47242;48.158;-1.586;2023-07-08T16:15:59;3.85;;;1.70;;
61373;SDS011;47242;48.158;-1.586;2023-07-08T16:31:28;3.88;;;1.60;;
61373;SDS011;47242;48.158;-1.586;2023-07-08T16:33:54;3.70;;;1.88;;
61373;SDS011;47242;48.158;-1.586;2023-07-08T16:36:26;4.60;;;1.70;;
61373;SDS011;47242;48.158;-1.586;2023-07-08T16:38:53;4.13;;;1.88;;
61373;SDS011;47242;48.158;-1.586;2023-07-08T16:41:20;4.53;;;1.90;;
61373;SDS011;47242;48.158;-1.586;2023-07-08T16:43:48;5.70;;;1.85;;
61373;SDS011;47242;48.158;-1.586;2023-07-08T16:46:16;4.10;;;1.92;;
61373;SDS011;47242;48.158;-1.586;2023-07-08T16:48:43;5.10;;;1.85;;
61373;SDS011;47242;48.158;-1.586;2023-07-08T16:51:11;4.25;;;1.50;;
61373;SDS011;47242;48.158;-1.586;2023-07-08T16:53:39;3.38;;;1.65;;
61373;SDS011;47242;48.158;-1.586;2023-07-08T16:56:18;3.70;;;1.60;;
61373;SDS011;47242;48.158;-1.586;2023-07-08T16:58:49;4.03;;;1.90;;
61373;SDS011;47242;48.158;-1.586;2023-07-08T17:01:30;4.93;;;1.73;;
61373;SDS011;47242;48.158;-1.586;2023-07-08T17:03:56;4.72;;;1.80;;
61373;SDS011;47242;48.158;-1.586;2023-07-08T17:06:23;3.70;;;1.70;;
61373;SDS011;47242;48.158;-1.586;2023-07-08T17:08:49;4.38;;;1.50;;
61373;SDS011;47242;48.158;-1.586;2023-07-08T17:11:15;4.10;;;1.30;;
61373;SDS011;47242;48.158;-1.586;2023-07-08T17:13:41;4.45;;;1.70;;
61373;SDS011;47242;48.158;-1.586;2023-07-08T17:16:10;3.47;;;1.33;;
61373;SDS011;47242;48.158;-1.586;2023-07-08T17:18:38;4.67;;;1.20;;
61373;SDS011;47242;48.158;-1.586;2023-07-08T17:21:05;3.28;;;1.60;;
61373;SDS011;47242;48.158;-1.586;2023-07-08T17:23:37;5.93;;;1.67;;
61373;SDS011;47242;48.158;-1.586;2023-07-08T17:26:03;3.17;;;1.27;;
61373;SDS011;47242;48.158;-1.586;2023-07-08T17:28:29;3.45;;;1.40;;
61373;SDS011;47242;48.158;-1.586;2023-07-08T17:31:03;5.13;;;1.70;;
61373;SDS011;47242;48.158;-1.586;2023-07-08T17:33:35;3.45;;;1.40;;
61373;SDS011;47242;48.158;-1.586;2023-07-08T17:36:01;3.53;;;1.88;;
61373;SDS011;47242;48.158;-1.586;2023-07-08T17:38:44;3.80;;;1.58;;
61373;SDS011;47242;48.158;-1.586;2023-07-08T17:44:02;3.35;;;1.48;;
61373;SDS011;47242;48.158;-1.586;2023-07-08T17:46:28;8.60;;;1.85;;
61373;SDS011;47242;48.158;-1.586;2023-07-08T17:48:54;4.80;;;1.88;;
61373;SDS011;47242;48.158;-1.586;2023-07-08T17:51:27;4.28;;;1.73;;
61373;SDS011;47242;48.158;-1.586;2023-07-08T17:53:59;3.92;;;1.30;;
61373;SDS011;47242;48.158;-1.586;2023-07-08T17:59:17;5.22;;;1.50;;
61373;SDS011;47242;48.158;-1.586;2023-07-08T18:01:45;4.68;;;1.50;;
61373;SDS011;47242;48.158;-1.586;2023-07-08T18:04:11;3.83;;;1.42;;
61373;SDS011;47242;48.158;-1.586;2023-07-08T18:06:37;3.85;;;1.73;;
61373;SDS011;47242;48.158;-1.586;2023-07-08T18:09:03;4.75;;;1.60;;
61373;SDS011;47242;48.158;-1.586;2023-07-08T18:11:29;4.05;;;1.67;;
61373;SDS011;47242;48.158;-1.586;2023-07-08T18:13:54;7.15;;;2.50;;
61373;SDS011;47242;48.158;-1.586;2023-07-08T18:16:21;5.53;;;2.50;;
61373;SDS011;47242;48.158;-1.586;2023-07-08T18:18:52;6.68;;;3.65;;
61373;SDS011;47242;48.158;-1.586;2023-07-08T18:21:22;4.40;;;2.17;;
61373;SDS011;47242;48.158;-1.586;2023-07-08T18:23:50;6.22;;;2.47;;
61373;SDS011;47242;48.158;-1.586;2023-07-08T18:26:18;4.90;;;1.90;;
61373;SDS011;47242;48.158;-1.586;2023-07-08T18:28:46;5.00;;;1.80;;
61373;SDS011;47242;48.158;-1.586;2023-07-08T18:31:13;7.43;;;3.40;;
61373;SDS011;47242;48.158;-1.586;2023-07-08T18:33:40;6.97;;;2.80;;
61373;SDS011;47242;48.158;-1.586;2023-07-08T18:36:10;5.00;;;1.83;;
61373;SDS011;47242;48.158;-1.586;2023-07-08T18:41:41;3.65;;;1.50;;
61373;SDS011;47242;48.158;-1.586;2023-07-08T18:47:43;3.85;;;1.35;;
61373;SDS011;47242;48.158;-1.586;2023-07-08T18:50:09;3.28;;;1.30;;
61373;SDS011;47242;48.158;-1.586;2023-07-08T18:52:35;3.20;;;1.20;;
61373;SDS011;47242;48.158;-1.586;2023-07-08T18:55:01;5.00;;;1.67;;
61373;SDS011;47242;48.158;-1.586;2023-07-08T18:57:28;4.45;;;1.92;;
61373;SDS011;47242;48.158;-1.586;2023-07-08T18:59:54;5.50;;;1.50;;
61373;SDS011;47242;48.158;-1.586;2023-07-08T19:02:30;3.95;;;1.40;;
61373;SDS011;47242;48.158;-1.586;2023-07-08T19:04:58;4.15;;;1.30;;
61373;SDS011;47242;48.158;-1.586;2023-07-08T19:07:24;3.35;;;1.10;;
61373;SDS011;47242;48.158;-1.586;2023-07-08T19:09:49;4.40;;;1.60;;
61373;SDS011;47242;48.158;-1.586;2023-07-08T19:12:15;3.95;;;1.48;;
61373;SDS011;47242;48.158;-1.586;2023-07-08T19:14:43;5.13;;;1.55;;
61373;SDS011;47242;48.158;-1.586;2023-07-08T19:17:08;3.70;;;1.40;;
61373;SDS011;47242;48.158;-1.586;2023-07-08T19:19:34;3.92;;;1.40;;
61373;SDS011;47242;48.158;-1.586;2023-07-08T19:22:00;3.33;;;1.30;;
61373;SDS011;47242;48.158;-1.586;2023-07-08T19:24:27;4.25;;;1.40;;
61373;SDS011;47242;48.158;-1.586;2023-07-08T19:26:53;7.80;;;1.75;;
61373;SDS011;47242;48.158;-1.586;2023-07-08T19:29:19;6.63;;;1.65;;
61373;SDS011;47242;48.158;-1.586;2023-07-08T19:31:45;4.20;;;1.60;;
61373;SDS011;47242;48.158;-1.586;2023-07-08T19:34:12;4.55;;;1.60;;
61373;SDS011;47242;48.158;-1.586;2023-07-08T19:36:39;5.20;;;1.50;;
61373;SDS011;47242;48.158;-1.586;2023-07-08T19:39:05;5.45;;;1.95;;
61373;SDS011;47242;48.158;-1.586;2023-07-08T19:41:31;4.70;;;1.88;;
61373;SDS011;47242;48.158;-1.586;2023-07-08T19:44:04;4.57;;;1.52;;
61373;SDS011;47242;48.158;-1.586;2023-07-08T19:46:33;6.38;;;1.88;;
61373;SDS011;47242;48.158;-1.586;2023-07-08T19:49:01;4.35;;;1.60;;
61373;SDS011;47242;48.158;-1.586;2023-07-08T19:51:32;8.90;;;2.55;;
61373;SDS011;47242;48.158;-1.586;2023-07-08T19:53:58;10.90;;;3.60;;
61373;SDS011;47242;48.158;-1.586;2023-07-08T19:56:23;9.73;;;4.32;;
61373;SDS011;47242;48.158;-1.586;2023-07-08T19:58:52;9.82;;;3.60;;
61373;SDS011;47242;48.158;-1.586;2023-07-08T20:01:17;5.15;;;2.55;;
61373;SDS011;47242;48.158;-1.586;2023-07-08T20:03:45;6.10;;;2.53;;
61373;SDS011;47242;48.158;-1.586;2023-07-08T20:06:12;9.00;;;2.35;;
61373;SDS011;47242;48.158;-1.586;2023-07-08T20:08:43;4.97;;;1.52;;
61373;SDS011;47242;48.158;-1.586;2023-07-08T20:11:10;4.15;;;1.50;;
61373;SDS011;47242;48.158;-1.586;2023-07-08T20:13:36;7.65;;;1.85;;
61373;SDS011;47242;48.158;-1.586;2023-07-08T20:16:21;5.35;;;1.63;;
61373;SDS011;47242;48.158;-1.586;2023-07-08T20:18:49;5.90;;;2.53;;
61373;SDS011;47242;48.158;-1.586;2023-07-08T20:21:16;5.68;;;1.48;;
61373;SDS011;47242;48.158;-1.586;2023-07-08T20:23:43;5.55;;;1.63;;
61373;SDS011;47242;48.158;-1.586;2023-07-08T20:26:18;4.65;;;1.30;;
61373;SDS011;47242;48.158;-1.586;2023-07-08T20:28:54;4.65;;;2.03;;
61373;SDS011;47242;48.158;-1.586;2023-07-08T20:31:21;4.68;;;1.67;;
61373;SDS011;47242;48.158;-1.586;2023-07-08T20:33:48;6.03;;;2.03;;
61373;SDS011;47242;48.158;-1.586;2023-07-08T20:36:14;6.15;;;2.00;;
61373;SDS011;47242;48.158;-1.586;2023-07-08T20:38:44;6.57;;;1.77;;
61373;SDS011;47242;48.158;-1.586;2023-07-08T20:41:10;10.13;;;2.35;;
61373;SDS011;47242;48.158;-1.586;2023-07-08T20:43:36;6.93;;;2.70;;
61373;SDS011;47242;48.158;-1.586;2023-07-08T20:46:02;4.40;;;2.20;;